createdAt,value
2019-04-29T00:02:42.213Z,52.30
2019-04-29T00:07:46.262Z,52.30
2019-04-29T00:12:50.019Z,52.10
2019-04-29T00:17:58.174Z,52.10
2019-04-29T00:23:01.824Z,52.00
2019-04-29T00:28:05.506Z,51.90
2019-04-29T00:33:09.251Z,51.90
2019-04-29T00:38:32.743Z,51.80
2019-04-29T00:43:41.791Z,51.70
2019-04-29T00:48:45.511Z,51.60
2019-04-29T00:53:50.909Z,51.70
2019-04-29T00:58:54.637Z,51.50
2019-04-29T01:03:58.421Z,51.50
2019-04-29T01:09:02.190Z,51.50
2019-04-29T01:14:05.990Z,51.50
2019-04-29T01:19:09.933Z,52.00
2019-04-29T01:24:13.604Z,51.30
2019-04-29T01:29:18.132Z,51.30
2019-04-29T01:34:26.214Z,51.20
2019-04-29T01:39:39.350Z,51.30
2019-04-29T01:44:43.241Z,51.10
2019-04-29T01:49:46.911Z,51.10
2019-04-29T01:54:50.604Z,51.10
2019-04-29T01:59:54.346Z,51.00
2019-04-29T02:04:58.025Z,51.00
2019-04-29T02:10:14.811Z,51.00
2019-04-29T02:15:18.511Z,50.90
2019-04-29T02:20:22.459Z,50.90
2019-04-29T02:25:31.307Z,50.70
2019-04-29T02:30:41.947Z,50.70
2019-04-29T02:35:46.184Z,50.60
2019-04-29T02:40:57.608Z,50.60
2019-04-29T02:46:01.322Z,50.60
2019-04-29T02:51:05.110Z,50.50
2019-04-29T02:56:09.124Z,50.60
2019-04-29T03:01:38.275Z,50.50
2019-04-29T03:06:41.954Z,50.40
2019-04-29T03:11:45.662Z,50.40
2019-04-29T03:16:49.502Z,50.40
2019-04-29T03:21:55.671Z,50.30
2019-04-29T03:26:59.406Z,50.30
2019-04-29T03:32:03.419Z,50.30
2019-04-29T03:37:07.157Z,50.20
2019-04-29T03:42:10.825Z,50.20
2019-04-29T03:47:18.387Z,50.20
2019-04-29T03:52:20.094Z,50.20
2019-04-29T03:57:23.885Z,50.20
2019-04-29T04:02:39.812Z,50.20
2019-04-29T04:07:48.379Z,50.10
2019-04-29T04:12:52.102Z,50.00
2019-04-29T04:18:04.340Z,50.00
2019-04-29T04:23:08.076Z,49.90
2019-04-29T04:28:11.984Z,50.00
2019-04-29T04:33:15.692Z,50.00
2019-04-29T04:38:19.474Z,49.80
2019-04-29T04:43:23.267Z,49.90
2019-04-29T04:48:27.042Z,50.10
2019-04-29T04:53:30.885Z,49.80
2019-04-29T04:58:34.627Z,49.80
2019-04-29T05:03:38.437Z,49.70
2019-04-29T05:08:42.118Z,49.80
2019-04-29T05:13:45.841Z,49.80
2019-04-29T05:18:49.549Z,49.70
2019-04-29T05:23:55.884Z,49.70
2019-04-29T05:28:59.611Z,49.70
2019-04-29T05:34:03.420Z,49.60
2019-04-29T05:39:17.655Z,49.70
2019-04-29T05:44:36.248Z,49.70
2019-04-29T05:49:45.333Z,49.60
2019-04-29T05:54:49.704Z,49.70
2019-04-29T05:59:53.585Z,49.60
2019-04-29T06:04:57.346Z,50.00
2019-04-29T06:10:01.151Z,49.60
2019-04-29T06:15:05.673Z,49.60
2019-04-29T06:20:13.053Z,49.60
2019-04-29T06:25:15.160Z,49.40
2019-04-29T06:30:19.071Z,49.60
2019-04-29T06:35:23.315Z,49.60
2019-04-29T06:40:30.608Z,49.70
2019-04-29T06:45:32.883Z,51.40
2019-04-29T06:50:36.635Z,50.60
2019-04-29T06:55:40.427Z,50.80
2019-04-29T07:00:44.197Z,51.60
2019-04-29T07:05:51.390Z,51.50
2019-04-29T07:10:55.833Z,51.70
2019-04-29T07:15:59.318Z,51.70
2019-04-29T07:21:03.240Z,51.70
2019-04-29T07:26:26.327Z,51.70
2019-04-29T07:31:33.401Z,51.70
2019-04-29T07:36:35.606Z,51.80
2019-04-29T07:41:39.484Z,51.70
2019-04-29T07:46:56.641Z,51.80
2019-04-29T07:51:57.834Z,51.80
2019-04-29T07:57:01.661Z,52.10
2019-04-29T08:02:05.576Z,51.80
2019-04-29T08:07:09.347Z,51.90
2019-04-29T08:12:13.112Z,52.10
2019-04-29T08:17:18.286Z,52.00
2019-04-29T08:22:22.781Z,51.90
2019-04-29T08:27:39.237Z,52.00
2019-04-29T08:32:36.417Z,52.00
2019-04-29T08:37:38.544Z,52.00
2019-04-29T08:42:46.920Z,52.30
2019-04-29T08:47:51.545Z,51.90
2019-04-29T08:52:55.458Z,52.00
2019-04-29T08:57:59.409Z,52.50
2019-04-29T09:03:03.433Z,52.60
2019-04-29T09:08:07.211Z,52.60
2019-04-29T09:19:15.573Z,52.60
2019-04-29T09:24:19.446Z,52.30
2019-04-29T09:29:36.910Z,53.50
2019-04-29T09:34:41.173Z,52.70
2019-04-29T09:39:46.607Z,52.30
2019-04-29T09:45:08.726Z,52.20
2019-04-29T09:50:12.465Z,52.00
2019-04-29T09:55:17.181Z,52.30
2019-04-29T10:00:53.747Z,52.20
2019-04-29T10:06:22.685Z,51.90
2019-04-29T10:11:26.749Z,52.50
2019-04-29T10:16:37.718Z,51.90
2019-04-29T10:21:41.400Z,51.90
2019-04-29T10:26:45.390Z,51.80
2019-04-29T10:31:49.258Z,51.80
2019-04-29T10:36:53.708Z,51.70
2019-04-29T10:41:58.414Z,51.90
2019-04-29T10:47:17.581Z,51.90
2019-04-29T10:52:22.345Z,51.80
2019-04-29T10:57:29.134Z,51.70
2019-04-29T11:02:35.531Z,51.80
2019-04-29T11:07:40.697Z,51.90
2019-04-29T11:12:44.518Z,51.90
2019-04-29T11:17:48.260Z,51.90
2019-04-29T11:22:58.514Z,51.80
2019-04-29T11:28:03.414Z,51.80
2019-04-29T11:33:13.830Z,52.30
2019-04-29T11:38:18.636Z,52.30
2019-04-29T11:43:24.123Z,52.70
2019-04-29T11:48:28.060Z,52.20
2019-04-29T11:53:33.839Z,52.20
2019-04-29T11:58:46.496Z,52.20
2019-04-29T12:03:51.336Z,52.20
2019-04-29T12:08:56.487Z,52.10
2019-04-29T12:14:22.110Z,52.50
2019-04-29T12:19:29.313Z,52.80
2019-04-29T12:24:34.613Z,52.80
2019-04-29T12:29:38.871Z,53.00
2019-04-29T12:35:00.622Z,52.70
2019-04-29T12:40:22.711Z,52.50
2019-04-29T12:45:48.820Z,52.40
2019-04-29T12:50:57.274Z,52.30
2019-04-29T12:55:58.583Z,52.30
2019-04-29T13:01:14.635Z,52.20
2019-04-29T13:06:38.789Z,52.30
2019-04-29T13:11:40.884Z,52.30
2019-04-29T13:16:57.102Z,52.20
2019-04-29T13:22:01.303Z,52.30
2019-04-29T13:27:15.736Z,52.30
2019-04-29T13:32:12.156Z,52.30
2019-04-29T13:37:18.787Z,52.40
2019-04-29T13:42:21.935Z,52.30
2019-04-29T13:47:49.956Z,52.30
2019-04-29T13:52:50.445Z,53.30
2019-04-29T13:57:54.961Z,52.50
2019-04-29T14:03:11.620Z,52.70
2019-04-29T14:08:18.864Z,52.90
2019-04-29T14:13:22.829Z,52.50
2019-04-29T14:18:26.604Z,52.80
2019-04-29T14:23:30.492Z,52.70
2019-04-29T14:28:34.333Z,52.70
2019-04-29T14:33:44.356Z,52.50
2019-04-29T14:38:48.135Z,53.30
2019-04-29T14:44:03.139Z,52.60
2019-04-29T14:49:10.038Z,52.90
2019-04-29T14:54:13.929Z,51.70
2019-04-29T14:59:18.008Z,52.50
2019-04-29T15:04:34.274Z,52.70
2019-04-29T15:09:55.942Z,52.60
2019-04-29T15:15:22.552Z,53.00
2019-04-29T15:20:33.889Z,53.50
2019-04-29T15:25:38.219Z,53.20
2019-04-29T15:30:43.179Z,53.10
2019-04-29T15:35:47.697Z,53.40
2019-04-29T15:40:53.301Z,52.70
2019-04-29T15:45:57.108Z,53.20
2019-04-29T15:51:00.995Z,53.10
2019-04-29T15:56:08.710Z,52.80
2019-04-29T16:01:16.821Z,52.60
2019-04-29T16:06:41.391Z,52.70
2019-04-29T16:12:15.429Z,52.60
2019-04-29T16:17:20.597Z,52.30
2019-04-29T16:22:24.690Z,52.30
2019-04-29T16:27:28.576Z,52.30
2019-04-29T16:32:37.503Z,52.30
2019-04-29T16:37:41.431Z,53.60
2019-04-29T16:43:03.151Z,53.90
2019-04-29T16:48:07.068Z,53.80
2019-04-29T16:53:10.824Z,54.20
2019-04-29T16:58:17.925Z,54.40
2019-04-29T17:03:19.968Z,53.40
2019-04-29T17:08:27.453Z,53.90
2019-04-29T17:13:31.566Z,53.60
2019-04-29T17:18:35.377Z,56.30
2019-04-29T17:23:48.831Z,54.80
2019-04-29T17:29:11.907Z,55.50
2019-04-29T17:34:44.043Z,56.10
2019-04-29T17:39:27.910Z,56.10
2019-04-29T17:44:43.589Z,56.30
2019-04-29T17:50:30.699Z,56.30
2019-04-29T17:55:40.998Z,56.10
2019-04-29T18:01:05.495Z,55.90
2019-04-29T18:06:31.539Z,57.40
2019-04-29T18:11:49.617Z,56.20
2019-04-29T18:16:43.704Z,56.00
2019-04-29T18:22:08.002Z,56.70
2019-04-29T18:27:16.222Z,55.50
2019-04-29T18:32:20.047Z,55.50
2019-04-29T18:37:25.180Z,55.20
2019-04-29T18:42:29.260Z,55.00
2019-04-29T18:47:35.433Z,54.80
2019-04-29T18:52:38.540Z,55.20
2019-04-29T18:57:42.322Z,55.00
2019-04-29T19:02:52.482Z,55.00
2019-04-29T19:07:55.130Z,54.70
2019-04-29T19:13:00.580Z,54.40
2019-04-29T19:18:07.635Z,54.30
2019-04-29T19:23:10.584Z,54.70
2019-04-29T19:28:24.817Z,54.50
2019-04-29T19:33:19.853Z,54.20
2019-04-29T19:38:25.344Z,54.50
2019-04-29T19:43:29.432Z,54.50
2019-04-29T19:48:34.781Z,54.40
2019-04-29T19:53:42.570Z,54.10
2019-04-29T19:58:44.519Z,54.00
2019-04-29T20:04:20.863Z,54.10
2019-04-29T20:09:22.746Z,54.20
2019-04-29T20:14:27.408Z,54.00
2019-04-29T20:19:55.275Z,53.90
2019-04-29T20:24:55.627Z,53.60
2019-04-29T20:29:59.322Z,53.60
2019-04-29T20:35:07.407Z,53.70
2019-04-29T20:40:09.270Z,53.40
2019-04-29T20:45:15.200Z,53.70
2019-04-29T20:50:19.100Z,53.50
2019-04-29T20:55:23.138Z,53.30
2019-04-29T21:00:28.881Z,53.80
2019-04-29T21:05:45.208Z,53.50
2019-04-29T21:10:42.950Z,53.50
2019-04-29T21:16:09.366Z,53.70
2019-04-29T21:21:15.099Z,53.60
2019-04-29T21:26:18.926Z,53.40
2019-04-29T21:31:22.786Z,53.30
2019-04-29T21:36:45.349Z,55.10
2019-04-29T21:41:59.720Z,55.50
2019-04-29T21:47:04.693Z,51.80
2019-04-29T21:52:09.196Z,53.40
2019-04-29T21:57:18.539Z,53.10
2019-04-29T22:02:19.073Z,54.10
2019-04-29T22:07:22.846Z,52.50
2019-04-29T22:12:26.922Z,53.60
2019-04-29T22:17:32.775Z,52.80
2019-04-29T22:22:36.586Z,53.80
2019-04-29T22:27:41.274Z,52.30
2019-04-29T22:32:46.878Z,52.30
2019-04-29T22:37:50.521Z,51.90
2019-04-29T22:43:08.448Z,51.50
2019-04-29T22:48:14.924Z,51.80
2019-04-29T22:53:12.672Z,51.80
2019-04-29T22:58:16.622Z,52.00
2019-04-29T23:03:20.461Z,51.60
2019-04-29T23:08:25.157Z,51.10
2019-04-29T23:13:31.120Z,51.00
2019-04-29T23:18:42.027Z,51.20
2019-04-29T23:23:45.385Z,51.00
2019-04-29T23:28:49.208Z,50.70
2019-04-29T23:33:53.310Z,50.70
2019-04-29T23:38:58.114Z,50.60
2019-04-29T23:44:05.174Z,50.70
2019-04-29T23:49:07.272Z,50.50
2019-04-29T23:54:10.962Z,50.40
2019-04-29T23:59:22.229Z,50.40
